createdAt,value
2022-10-22T00:01:00.546Z,3.80
2022-10-22T00:03:26.934Z,3.50
2022-10-22T00:05:53.293Z,3.30
2022-10-22T00:08:19.725Z,3.00
2022-10-22T00:10:46.109Z,2.73
2022-10-22T00:13:13.189Z,2.27
2022-10-22T00:15:39.834Z,2.43
2022-10-22T00:18:06.437Z,2.00
2022-10-22T00:20:33.013Z,2.07
2022-10-22T00:22:59.349Z,2.20
2022-10-22T00:25:25.695Z,2.27
2022-10-22T00:27:52.180Z,2.57
2022-10-22T00:30:18.540Z,2.53
2022-10-22T00:32:45.195Z,3.00
2022-10-22T00:35:11.575Z,2.53
2022-10-22T00:37:38.015Z,3.27
2022-10-22T00:40:05.053Z,3.60
2022-10-22T00:42:31.385Z,3.20
2022-10-22T00:45:03.517Z,2.80
2022-10-22T00:47:37.119Z,2.63
2022-10-22T00:50:07.663Z,3.07
2022-10-22T00:52:34.132Z,2.87
2022-10-22T00:55:01.407Z,2.63
2022-10-22T00:57:28.538Z,3.70
2022-10-22T00:59:56.663Z,3.50
2022-10-22T01:02:23.642Z,3.60
2022-10-22T01:04:49.977Z,3.23
2022-10-22T01:07:24.134Z,2.60
2022-10-22T01:09:55.876Z,3.43
2022-10-22T01:12:47.656Z,2.70
2022-10-22T01:15:43.413Z,2.87
2022-10-22T01:18:23.833Z,2.33
2022-10-22T01:21:12.009Z,2.53
2022-10-22T01:24:12.555Z,2.63
2022-10-22T01:27:00.382Z,2.80
2022-10-22T01:29:38.787Z,2.50
2022-10-22T01:32:11.637Z,2.17
2022-10-22T01:34:41.463Z,2.10
2022-10-22T01:37:09.791Z,2.17
2022-10-22T01:39:37.904Z,2.33
2022-10-22T01:42:04.283Z,2.20
2022-10-22T01:44:33.395Z,2.40
2022-10-22T01:47:17.665Z,2.00
2022-10-22T01:50:05.892Z,1.97
2022-10-22T01:52:50.831Z,1.77
2022-10-22T01:55:35.420Z,1.80
2022-10-22T01:58:34.848Z,2.13
2022-10-22T02:01:26.745Z,2.53
2022-10-22T02:04:05.463Z,2.40
2022-10-22T02:06:33.619Z,2.30
2022-10-22T02:09:02.125Z,2.27
2022-10-22T02:11:28.676Z,2.10
2022-10-22T02:13:59.663Z,2.30
2022-10-22T02:16:35.549Z,2.40
2022-10-22T02:19:06.504Z,2.50
2022-10-22T02:21:32.956Z,2.27
2022-10-22T02:23:59.283Z,2.50
2022-10-22T02:26:34.652Z,2.13
2022-10-22T02:29:25.529Z,2.50
2022-10-22T02:31:53.745Z,2.60
2022-10-22T02:34:24.075Z,4.00
2022-10-22T02:36:51.936Z,4.23
2022-10-22T02:39:20.732Z,3.50
2022-10-22T02:41:48.140Z,3.60
2022-10-22T02:44:14.504Z,4.40
2022-10-22T02:46:42.781Z,3.63
2022-10-22T02:49:09.088Z,4.13
2022-10-22T02:51:35.432Z,4.03
2022-10-22T02:54:01.810Z,4.37
2022-10-22T02:56:28.432Z,3.90
2022-10-22T02:58:54.795Z,3.93
2022-10-22T03:01:21.145Z,3.70
2022-10-22T03:03:47.479Z,3.73
2022-10-22T03:06:14.029Z,3.37
2022-10-22T03:08:40.901Z,3.50
2022-10-22T03:11:07.406Z,2.90
2022-10-22T03:13:33.820Z,3.67
2022-10-22T03:16:03.361Z,2.70
2022-10-22T03:18:29.720Z,3.00
2022-10-22T03:21:19.260Z,3.10
2022-10-22T03:23:45.628Z,3.30
2022-10-22T03:26:13.991Z,3.00
2022-10-22T03:28:42.432Z,3.80
2022-10-22T03:31:08.809Z,3.60
2022-10-22T03:33:35.414Z,3.40
2022-10-22T03:36:02.047Z,3.63
2022-10-22T03:38:29.696Z,3.30
2022-10-22T03:40:56.077Z,3.30
2022-10-22T03:43:22.533Z,4.13
2022-10-22T03:45:48.859Z,3.30
2022-10-22T03:48:15.181Z,3.80
2022-10-22T03:50:41.576Z,4.20
2022-10-22T03:53:10.701Z,3.07
2022-10-22T03:55:38.206Z,3.30
2022-10-22T03:58:05.414Z,3.20
2022-10-22T04:00:32.044Z,3.30
2022-10-22T04:02:58.407Z,2.87
2022-10-22T04:05:24.805Z,3.00
2022-10-22T04:07:51.134Z,2.60
2022-10-22T04:10:17.528Z,2.67
2022-10-22T04:12:48.106Z,2.33
2022-10-22T04:15:14.854Z,2.50
2022-10-22T04:17:41.551Z,2.47
2022-10-22T04:20:08.721Z,3.00
2022-10-22T04:22:35.561Z,2.57
2022-10-22T04:25:02.774Z,3.03
2022-10-22T04:27:31.040Z,2.80
2022-10-22T04:29:57.405Z,3.20
2022-10-22T04:32:24.183Z,2.77
2022-10-22T04:34:50.523Z,3.30
2022-10-22T04:37:16.878Z,3.33
2022-10-22T04:39:43.297Z,3.43
2022-10-22T04:42:09.721Z,3.03
2022-10-22T04:44:36.036Z,3.20
2022-10-22T04:47:02.372Z,3.43
2022-10-22T04:49:28.966Z,3.60
2022-10-22T04:51:55.525Z,2.97
2022-10-22T04:54:22.092Z,3.63
2022-10-22T04:56:48.514Z,3.90
2022-10-22T04:59:15.084Z,3.20
2022-10-22T05:01:43.636Z,3.97
2022-10-22T05:04:15.775Z,3.80
2022-10-22T05:06:43.043Z,5.20
2022-10-22T05:09:18.804Z,3.67
2022-10-22T05:11:50.670Z,3.80
2022-10-22T05:14:19.451Z,3.93
2022-10-22T05:16:48.557Z,3.33
2022-10-22T05:19:23.893Z,3.33
2022-10-22T05:21:54.898Z,4.20
2022-10-22T05:24:21.992Z,3.70
2022-10-22T05:26:52.856Z,3.57
2022-10-22T05:29:19.784Z,3.80
2022-10-22T05:31:46.374Z,3.90
2022-10-22T05:34:13.230Z,3.87
2022-10-22T05:36:39.789Z,4.20
2022-10-22T05:39:06.388Z,3.80
2022-10-22T05:41:33.801Z,3.73
2022-10-22T05:44:00.528Z,3.87
2022-10-22T05:46:29.820Z,4.07
2022-10-22T05:48:59.136Z,4.20
2022-10-22T05:51:27.959Z,4.13
2022-10-22T05:53:56.703Z,3.97
2022-10-22T05:56:23.903Z,4.20
2022-10-22T05:58:50.608Z,4.67
2022-10-22T06:01:28.747Z,7.40
2022-10-22T06:03:57.781Z,6.60
2022-10-22T06:06:37.958Z,7.07
2022-10-22T06:09:24.798Z,4.00
2022-10-22T06:11:51.805Z,4.07
2022-10-22T06:14:19.248Z,2.80
2022-10-22T06:16:46.151Z,2.53
2022-10-22T06:19:14.188Z,2.97
2022-10-22T06:21:40.955Z,2.97
2022-10-22T06:24:07.825Z,2.50
2022-10-22T06:26:34.163Z,3.00
2022-10-22T06:29:00.577Z,2.87
2022-10-22T06:31:28.466Z,2.10
2022-10-22T06:33:56.703Z,2.50
2022-10-22T06:36:24.268Z,2.20
2022-10-22T06:38:54.746Z,2.93
2022-10-22T06:41:24.380Z,2.20
2022-10-22T06:43:53.527Z,2.20
2022-10-22T06:46:21.555Z,2.03
2022-10-22T06:48:53.145Z,2.23
2022-10-22T06:51:21.020Z,2.87
2022-10-22T06:53:48.025Z,2.53
2022-10-22T06:56:17.053Z,2.73
2022-10-22T06:58:43.479Z,2.03
2022-10-22T07:01:14.991Z,2.20
2022-10-22T07:03:42.356Z,2.00
2022-10-22T07:06:11.653Z,2.33
2022-10-22T07:08:39.033Z,2.20
2022-10-22T07:11:17.744Z,2.30
2022-10-22T07:13:44.759Z,2.47
2022-10-22T07:16:11.761Z,2.77
2022-10-22T07:18:39.330Z,2.30
2022-10-22T07:21:07.066Z,1.93
2022-10-22T07:23:33.821Z,1.93
2022-10-22T07:26:02.338Z,1.97
2022-10-22T07:28:30.096Z,1.83
2022-10-22T07:30:56.408Z,2.10
2022-10-22T07:33:22.731Z,1.60
2022-10-22T07:35:49.036Z,1.70
2022-10-22T07:38:15.366Z,2.00
2022-10-22T07:40:41.670Z,2.73
2022-10-22T07:43:08.076Z,2.50
2022-10-22T07:45:34.434Z,2.30
2022-10-22T07:48:01.928Z,2.20
2022-10-22T07:50:28.326Z,2.20
2022-10-22T07:52:56.129Z,1.90
2022-10-22T07:55:24.516Z,2.23
2022-10-22T07:57:51.012Z,2.10
2022-10-22T08:00:20.455Z,1.70
2022-10-22T08:02:49.451Z,1.90
2022-10-22T08:05:16.364Z,1.23
2022-10-22T08:07:43.370Z,1.20
2022-10-22T08:10:10.690Z,1.00
2022-10-22T08:12:38.527Z,1.60
2022-10-22T08:15:06.081Z,0.93
2022-10-22T08:17:32.803Z,1.00
2022-10-22T08:19:59.137Z,1.30
2022-10-22T08:22:25.468Z,1.40
2022-10-22T08:24:51.839Z,1.20
2022-10-22T08:27:18.210Z,1.60
2022-10-22T08:29:44.675Z,0.97
2022-10-22T08:32:11.316Z,0.90
2022-10-22T08:34:37.937Z,1.23
2022-10-22T08:37:05.508Z,0.93
2022-10-22T08:39:31.907Z,1.37
2022-10-22T08:42:25.640Z,1.10
2022-10-22T08:45:19.881Z,1.70
2022-10-22T08:48:00.598Z,1.47
2022-10-22T08:50:39.042Z,1.20
2022-10-22T08:53:15.254Z,1.10
2022-10-22T08:55:42.382Z,1.10
2022-10-22T08:58:18.721Z,1.17
2022-10-22T09:00:58.714Z,1.00
2022-10-22T09:03:57.721Z,1.80
2022-10-22T09:06:26.646Z,1.30
2022-10-22T09:08:54.365Z,1.30
2022-10-22T09:11:32.464Z,1.20
2022-10-22T09:14:00.389Z,1.50
2022-10-22T09:16:32.736Z,1.10
2022-10-22T09:19:19.330Z,1.20
2022-10-22T09:21:59.971Z,1.17
2022-10-22T09:24:47.494Z,1.10
2022-10-22T09:27:17.201Z,1.20
2022-10-22T09:29:45.284Z,1.20
2022-10-22T09:32:11.790Z,1.23
2022-10-22T09:34:38.826Z,1.33
2022-10-22T09:37:09.086Z,1.20
2022-10-22T09:39:46.582Z,1.33
2022-10-22T09:42:16.881Z,1.33
2022-10-22T09:44:46.354Z,1.20
2022-10-22T09:47:42.995Z,1.07
2022-10-22T09:50:30.075Z,1.23
2022-10-22T09:53:31.475Z,1.20
2022-10-22T09:56:00.624Z,1.33
2022-10-22T09:58:27.477Z,1.27
2022-10-22T10:01:00.254Z,1.20
2022-10-22T10:03:30.954Z,1.10
2022-10-22T10:06:02.995Z,1.40
2022-10-22T10:08:32.390Z,1.10
2022-10-22T10:11:06.251Z,1.17
2022-10-22T10:13:57.012Z,1.17
2022-10-22T10:16:38.662Z,1.20
2022-10-22T10:19:21.328Z,1.30
2022-10-22T10:21:59.614Z,1.40
2022-10-22T10:24:39.003Z,1.47
2022-10-22T10:27:12.895Z,1.10
2022-10-22T10:30:13.325Z,1.53
2022-10-22T10:33:14.565Z,1.30
2022-10-22T10:35:58.742Z,1.20
2022-10-22T10:38:56.137Z,1.50
2022-10-22T10:41:33.233Z,3.40
2022-10-22T10:44:44.444Z,1.30
2022-10-22T10:47:33.478Z,1.90
2022-10-22T10:50:17.255Z,1.23
2022-10-22T10:53:00.546Z,2.03
2022-10-22T10:55:41.907Z,1.10
2022-10-22T10:58:23.446Z,0.97
2022-10-22T11:01:02.115Z,1.90
2022-10-22T11:03:34.581Z,1.00
2022-10-22T11:06:07.436Z,1.17
2022-10-22T11:08:38.080Z,1.40
2022-10-22T11:11:10.794Z,1.30
2022-10-22T11:13:55.653Z,0.93
2022-10-22T11:16:58.602Z,1.80
2022-10-22T11:19:46.224Z,1.60
2022-10-22T11:22:30.502Z,1.10
2022-10-22T11:25:15.525Z,1.27
2022-10-22T11:27:49.045Z,1.00
2022-10-22T11:30:19.030Z,1.57
2022-10-22T11:32:53.347Z,1.00
2022-10-22T11:35:32.930Z,1.03
2022-10-22T11:38:00.880Z,1.30
2022-10-22T11:40:38.396Z,1.20
2022-10-22T11:46:24.547Z,1.60
2022-10-22T11:49:25.948Z,1.17
2022-10-22T11:52:21.334Z,1.50
2022-10-22T11:54:47.685Z,1.20
2022-10-22T11:57:49.857Z,1.40
2022-10-22T12:00:34.009Z,1.10
2022-10-22T12:03:16.665Z,1.50
2022-10-22T12:05:44.426Z,1.50
2022-10-22T12:08:14.864Z,1.40
2022-10-22T12:10:56.711Z,1.30
2022-10-22T12:14:00.938Z,1.10
2022-10-22T12:16:54.509Z,1.20
2022-10-22T12:19:22.478Z,1.20
2022-10-22T12:21:54.467Z,0.90
2022-10-22T12:24:23.225Z,1.40
2022-10-22T12:26:54.452Z,1.20
2022-10-22T12:29:23.596Z,1.23
2022-10-22T12:31:50.313Z,1.03
2022-10-22T12:34:19.263Z,1.10
2022-10-22T12:36:48.552Z,1.30
2022-10-22T12:39:20.664Z,0.87
2022-10-22T12:41:47.382Z,1.30
2022-10-22T12:44:16.515Z,1.10
2022-10-22T12:46:45.405Z,1.30
2022-10-22T12:49:52.965Z,1.40
2022-10-22T12:52:31.180Z,1.27
2022-10-22T12:55:05.021Z,1.20
2022-10-22T12:57:40.474Z,1.03
2022-10-22T13:00:20.752Z,1.33
2022-10-22T13:02:47.552Z,1.20
2022-10-22T13:05:23.918Z,1.10
2022-10-22T13:07:57.449Z,1.10
2022-10-22T13:10:32.213Z,2.10
2022-10-22T13:13:07.421Z,1.00
2022-10-22T13:15:41.849Z,1.30
2022-10-22T13:18:23.898Z,1.23
2022-10-22T13:21:00.542Z,2.17
2022-10-22T13:23:31.032Z,1.50
2022-10-22T13:26:38.028Z,0.90
2022-10-22T13:29:26.064Z,1.13
2022-10-22T13:38:31.171Z,1.20
2022-10-22T13:44:14.096Z,1.83
2022-10-22T13:46:42.831Z,1.13
2022-10-22T13:49:27.733Z,0.80
2022-10-22T13:52:05.461Z,1.30
2022-10-22T13:54:35.141Z,1.53
2022-10-22T13:57:11.382Z,1.20
2022-10-22T13:59:52.927Z,1.10
2022-10-22T14:02:27.513Z,1.00
2022-10-22T14:05:06.907Z,1.03
2022-10-22T14:07:36.548Z,1.00
2022-10-22T14:10:13.040Z,1.40
2022-10-22T14:12:39.373Z,1.10
2022-10-22T14:15:06.302Z,1.37
2022-10-22T14:17:32.716Z,1.30
2022-10-22T14:19:59.857Z,1.37
2022-10-22T14:22:28.120Z,1.10
2022-10-22T14:24:55.114Z,1.20
2022-10-22T14:27:21.514Z,1.10
2022-10-22T14:29:47.835Z,0.90
2022-10-22T14:32:21.629Z,1.00
2022-10-22T14:34:48.029Z,1.50
2022-10-22T14:37:20.223Z,1.00
2022-10-22T14:39:51.786Z,1.20
2022-10-22T14:42:19.807Z,1.10
2022-10-22T14:44:46.466Z,1.00
2022-10-22T14:47:12.810Z,0.90
2022-10-22T14:49:39.174Z,1.07
2022-10-22T14:52:05.508Z,1.00
2022-10-22T14:54:33.046Z,1.10
2022-10-22T14:56:59.383Z,1.50
2022-10-22T14:59:25.735Z,1.30
2022-10-22T15:01:52.107Z,1.17
2022-10-22T15:04:18.514Z,1.30
2022-10-22T15:06:44.857Z,1.20
2022-10-22T15:09:11.280Z,1.20
2022-10-22T15:11:37.650Z,1.00
2022-10-22T15:14:03.968Z,1.40
2022-10-22T15:16:30.427Z,1.10
2022-10-22T15:18:57.344Z,1.13
2022-10-22T15:21:23.705Z,1.10
2022-10-22T15:23:50.198Z,1.33
2022-10-22T15:26:17.295Z,1.70
2022-10-22T15:28:43.619Z,1.10
2022-10-22T15:31:13.109Z,1.00
2022-10-22T15:33:41.565Z,1.07
2022-10-22T15:36:16.642Z,0.90
2022-10-22T15:38:43.155Z,1.13
2022-10-22T15:41:12.649Z,1.00
2022-10-22T15:43:38.977Z,1.10
2022-10-22T15:46:11.451Z,1.27
2022-10-22T15:48:38.168Z,1.90
2022-10-22T15:51:09.772Z,1.60
2022-10-22T15:53:36.220Z,1.10
2022-10-22T15:56:02.664Z,1.10
2022-10-22T15:58:29.121Z,1.00
2022-10-22T16:00:55.493Z,1.27
2022-10-22T16:03:21.923Z,2.70
2022-10-22T16:05:54.394Z,2.07
2022-10-22T16:08:21.200Z,1.77
2022-10-22T16:10:48.444Z,1.70
2022-10-22T16:13:15.211Z,2.33
2022-10-22T16:15:41.940Z,2.00
2022-10-22T16:18:08.372Z,2.00
2022-10-22T16:20:39.649Z,2.53
2022-10-22T16:23:06.183Z,2.07
2022-10-22T16:25:39.977Z,2.20
2022-10-22T16:28:07.147Z,2.90
2022-10-22T16:30:35.136Z,2.23
2022-10-22T16:33:03.506Z,4.80
2022-10-22T16:35:30.818Z,1.90
2022-10-22T16:37:57.330Z,2.43
2022-10-22T16:40:23.671Z,2.20
2022-10-22T16:42:50.015Z,2.50
2022-10-22T16:45:17.310Z,2.67
2022-10-22T16:47:45.650Z,2.10
2022-10-22T16:50:12.001Z,2.37
2022-10-22T16:52:38.311Z,2.20
2022-10-22T16:55:05.038Z,3.53
2022-10-22T16:57:31.917Z,3.30
2022-10-22T16:59:58.215Z,4.37
2022-10-22T17:02:24.572Z,4.40
2022-10-22T17:04:51.122Z,5.60
2022-10-22T17:07:17.652Z,6.17
2022-10-22T17:09:44.025Z,4.50
2022-10-22T17:12:10.352Z,4.60
2022-10-22T17:14:36.950Z,3.60
2022-10-22T17:17:03.298Z,3.90
2022-10-22T17:19:29.862Z,4.00
2022-10-22T17:21:56.180Z,2.70
2022-10-22T17:24:22.562Z,5.00
2022-10-22T17:26:48.909Z,4.17
2022-10-22T17:29:15.432Z,3.10
2022-10-22T17:31:41.969Z,2.67
2022-10-22T17:34:14.719Z,4.30
2022-10-22T17:36:41.959Z,3.67
2022-10-22T17:39:08.484Z,2.67
2022-10-22T17:41:37.030Z,2.63
2022-10-22T17:44:05.689Z,2.20
2022-10-22T17:46:32.668Z,1.80
2022-10-22T17:49:04.268Z,1.90
2022-10-22T17:51:31.994Z,1.50
2022-10-22T17:53:58.773Z,2.10
2022-10-22T17:56:30.133Z,3.40
2022-10-22T17:58:56.554Z,2.77
2022-10-22T18:01:28.434Z,2.40
2022-10-22T18:03:59.029Z,4.07
2022-10-22T18:06:25.581Z,3.27
2022-10-22T18:08:51.915Z,3.90
2022-10-22T18:11:21.271Z,5.80
2022-10-22T18:13:53.244Z,8.20
2022-10-22T18:16:20.053Z,5.80
2022-10-22T18:18:48.818Z,4.00
2022-10-22T18:21:16.590Z,3.60
2022-10-22T18:23:43.254Z,4.70
2022-10-22T18:26:09.693Z,5.70
2022-10-22T18:28:36.510Z,4.90
2022-10-22T18:31:08.603Z,6.90
2022-10-22T18:33:36.961Z,5.40
2022-10-22T18:36:05.759Z,4.40
2022-10-22T18:38:32.157Z,4.30
2022-10-22T18:40:58.516Z,4.60
2022-10-22T18:43:24.953Z,4.40
2022-10-22T18:45:51.523Z,5.30
2022-10-22T18:48:20.196Z,4.10
2022-10-22T18:50:47.158Z,4.30
2022-10-22T18:53:16.066Z,3.47
2022-10-22T18:55:42.574Z,3.70
2022-10-22T18:58:08.948Z,2.90
2022-10-22T19:00:36.339Z,2.80
2022-10-22T19:03:03.212Z,3.17
2022-10-22T19:05:29.762Z,3.80
2022-10-22T19:07:56.278Z,3.13
2022-10-22T19:10:22.778Z,2.60
2022-10-22T19:12:49.177Z,2.63
2022-10-22T19:15:16.106Z,2.93
2022-10-22T19:17:42.779Z,4.33
2022-10-22T19:20:09.950Z,3.80
2022-10-22T19:22:36.465Z,3.43
2022-10-22T19:25:04.270Z,3.70
2022-10-22T19:27:32.573Z,3.20
2022-10-22T19:29:59.034Z,2.67
2022-10-22T19:32:27.563Z,2.63
2022-10-22T19:34:57.317Z,2.43
2022-10-22T19:37:23.848Z,2.30
2022-10-22T19:39:50.281Z,2.10
2022-10-22T19:42:16.816Z,2.73
2022-10-22T19:44:43.287Z,3.77
2022-10-22T19:47:11.274Z,2.80
2022-10-22T19:49:37.711Z,2.23
2022-10-22T19:52:04.288Z,2.40
2022-10-22T19:54:30.771Z,2.20
2022-10-22T19:56:57.314Z,2.27
2022-10-22T19:59:26.232Z,2.10
2022-10-22T20:01:55.091Z,2.33
2022-10-22T20:04:24.975Z,2.40
2022-10-22T20:06:51.504Z,2.73
2022-10-22T20:09:18.014Z,2.87
2022-10-22T20:11:44.492Z,2.50
2022-10-22T20:14:12.777Z,3.13
2022-10-22T20:16:41.456Z,2.33
2022-10-22T20:19:08.570Z,2.87
2022-10-22T20:21:35.202Z,2.77
2022-10-22T20:24:02.764Z,3.43
2022-10-22T20:26:29.479Z,3.00
2022-10-22T20:28:57.384Z,2.50
2022-10-22T20:31:27.049Z,3.50
2022-10-22T20:33:57.243Z,3.17
2022-10-22T20:36:24.682Z,2.90
2022-10-22T20:38:52.060Z,3.03
2022-10-22T20:41:23.328Z,3.33
2022-10-22T20:43:51.887Z,3.27
2022-10-22T20:46:24.264Z,3.50
2022-10-22T20:48:58.205Z,3.10
2022-10-22T20:51:24.695Z,2.90
2022-10-22T20:53:51.129Z,3.20
2022-10-22T20:56:18.330Z,2.90
2022-10-22T20:58:48.480Z,3.33
2022-10-22T21:01:21.417Z,3.10
2022-10-22T21:03:49.892Z,3.43
2022-10-22T21:06:16.554Z,3.23
2022-10-22T21:08:43.017Z,3.10
2022-10-22T21:11:09.394Z,3.50
2022-10-22T21:13:35.816Z,2.87
2022-10-22T21:16:10.283Z,3.20
2022-10-22T21:18:36.958Z,3.43
2022-10-22T21:21:05.369Z,3.73
2022-10-22T21:23:32.532Z,3.63
2022-10-22T21:25:59.114Z,3.10
2022-10-22T21:28:25.869Z,3.20
2022-10-22T21:30:52.306Z,2.80
2022-10-22T21:33:18.700Z,3.50
2022-10-22T21:35:55.810Z,3.80
2022-10-22T21:38:23.532Z,3.83
2022-10-22T21:40:50.163Z,4.30
2022-10-22T21:43:17.211Z,4.33
2022-10-22T21:45:44.324Z,3.90
2022-10-22T21:48:13.411Z,4.27
2022-10-22T21:50:40.853Z,3.50
2022-10-22T21:53:08.290Z,3.80
2022-10-22T21:55:41.467Z,4.37
2022-10-22T21:58:08.646Z,3.13
2022-10-22T22:00:36.074Z,2.73
2022-10-22T22:03:02.477Z,3.40
2022-10-22T22:05:28.893Z,3.03
2022-10-22T22:07:55.292Z,3.13
2022-10-22T22:13:34.256Z,3.00
2022-10-22T22:16:06.401Z,3.70
2022-10-22T22:18:33.758Z,5.10
2022-10-22T22:21:04.119Z,5.47
2022-10-22T22:23:30.470Z,5.93
2022-10-22T22:26:00.681Z,4.60
2022-10-22T22:28:29.307Z,3.67
2022-10-22T22:30:55.997Z,3.33
2022-10-22T22:33:22.580Z,3.23
2022-10-22T22:35:48.930Z,4.10
2022-10-22T22:38:15.431Z,3.47
2022-10-22T22:40:41.886Z,3.80
2022-10-22T22:43:09.278Z,3.93
2022-10-22T22:45:35.742Z,3.20
2022-10-22T22:48:02.907Z,3.30
2022-10-22T22:50:29.477Z,3.97
2022-10-22T22:52:55.977Z,2.70
2022-10-22T22:55:23.003Z,3.30
2022-10-22T22:57:49.520Z,2.60
2022-10-22T23:00:16.437Z,2.90
2022-10-22T23:02:43.140Z,3.73
2022-10-22T23:05:09.676Z,3.53
2022-10-22T23:07:35.985Z,3.20
2022-10-22T23:10:02.298Z,3.60
2022-10-22T23:12:29.137Z,3.33
2022-10-22T23:14:55.474Z,3.30
2022-10-22T23:17:21.806Z,3.60
2022-10-22T23:19:48.142Z,2.63
2022-10-22T23:22:14.468Z,10.03
2022-10-22T23:24:40.787Z,4.40
2022-10-22T23:27:07.232Z,3.43
2022-10-22T23:29:35.693Z,2.67
2022-10-22T23:32:07.320Z,2.83
2022-10-22T23:34:33.629Z,3.13
2022-10-22T23:36:59.960Z,3.00
2022-10-22T23:39:28.420Z,3.43
2022-10-22T23:41:55.082Z,3.17
2022-10-22T23:44:22.470Z,3.90
2022-10-22T23:46:49.467Z,3.40
2022-10-22T23:49:16.601Z,2.90
2022-10-22T23:51:43.014Z,3.73
2022-10-22T23:54:15.383Z,3.33
2022-10-22T23:56:42.020Z,2.77
2022-10-22T23:59:09.147Z,3.57
